createdAt,value
2022-09-02T00:05:10.426Z,30.2
2022-09-02T00:10:40.908Z,30.2
2022-09-02T00:16:11.426Z,30.2
2022-09-02T00:21:40.813Z,30.2
2022-09-02T00:27:11.284Z,30.2
2022-09-02T00:32:41.759Z,30.1
2022-09-02T00:38:11.255Z,30.1
2022-09-02T00:43:41.761Z,30.2
2022-09-02T00:49:11.302Z,30.2
2022-09-02T00:54:41.781Z,30.2
2022-09-02T01:00:12.282Z,30.2
2022-09-02T01:05:43.856Z,30.2
2022-09-02T01:11:12.303Z,30.1
2022-09-02T01:16:42.906Z,30.1
2022-09-02T01:22:12.295Z,30.1
2022-09-02T01:27:42.770Z,30.1
2022-09-02T01:33:13.237Z,30.1
2022-09-02T01:38:42.747Z,30.1
2022-09-02T01:44:13.230Z,30.1
2022-09-02T01:49:43.737Z,30.1
2022-09-02T01:55:12.239Z,30.1
2022-09-02T02:00:42.810Z,30.1
2022-09-02T02:06:13.197Z,30.1
2022-09-02T02:11:42.838Z,30.1
2022-09-02T02:17:13.299Z,30.1
2022-09-02T02:22:43.770Z,30.1
2022-09-02T02:28:14.239Z,30.1
2022-09-02T02:33:43.749Z,30.1
2022-09-02T02:39:14.232Z,30.1
2022-09-02T02:44:44.697Z,30.1
2022-09-02T02:50:14.183Z,30
2022-09-02T02:55:44.697Z,30
2022-09-02T03:01:15.210Z,30
2022-09-02T03:06:44.724Z,30
2022-09-02T03:12:15.203Z,30
2022-09-02T03:17:45.686Z,30
2022-09-02T03:23:15.200Z,30
2022-09-02T03:28:45.694Z,30
2022-09-02T03:34:16.164Z,30
2022-09-02T03:39:45.705Z,30
2022-09-02T03:45:16.172Z,30
2022-09-02T03:50:46.645Z,30
2022-09-02T03:56:16.143Z,29.9
2022-09-02T04:01:46.687Z,30
2022-09-02T04:07:16.130Z,29.9
2022-09-02T04:12:46.597Z,29.9
2022-09-02T04:18:17.108Z,29.9
2022-09-02T04:23:47.607Z,29.9
2022-09-02T04:29:17.105Z,29.9
2022-09-02T04:34:47.600Z,29.8
2022-09-02T04:40:17.171Z,29.6
2022-09-02T04:45:47.722Z,29.5
2022-09-02T04:51:18.185Z,29.3
2022-09-02T04:56:48.779Z,29.1
2022-09-02T05:02:19.451Z,29
2022-09-02T05:07:49.983Z,29
2022-09-02T05:13:19.556Z,29.1
2022-09-02T05:18:50.119Z,29.1
2022-09-02T05:24:24.497Z,29.2
2022-09-02T05:29:50.186Z,29.2
2022-09-02T05:35:20.713Z,29.2
2022-09-02T05:40:50.377Z,29.1
2022-09-02T05:46:20.824Z,29
2022-09-02T05:51:51.326Z,29
2022-09-02T05:57:21.881Z,28.9
2022-09-02T06:02:51.525Z,28.9
2022-09-02T06:08:22.175Z,28.8
2022-09-02T06:13:52.750Z,28.7
2022-09-02T06:19:23.349Z,28.6
2022-09-02T06:24:53.912Z,28.7
2022-09-02T06:30:23.482Z,28.6
2022-09-02T06:35:54.032Z,28.6
2022-09-02T06:41:24.570Z,28.7
2022-09-02T06:46:54.375Z,28.6
2022-09-02T06:52:24.766Z,28.6
2022-09-02T06:57:55.390Z,28.6
2022-09-02T07:03:25.976Z,28.6
2022-09-02T07:08:56.634Z,28.6
2022-09-02T07:14:26.207Z,28.6
2022-09-02T07:19:56.795Z,28.6
2022-09-02T07:25:27.314Z,28.7
2022-09-02T07:30:59.828Z,28.7
2022-09-02T07:36:27.454Z,28.8
2022-09-02T07:41:58.042Z,28.9
2022-09-02T07:47:28.603Z,29
2022-09-02T07:52:59.181Z,29.1
2022-09-02T07:58:28.726Z,29.3
2022-09-02T08:04:01.490Z,29.4
2022-09-02T08:09:29.806Z,29.6
2022-09-02T08:14:59.339Z,29.7
2022-09-02T08:20:29.849Z,29.8
2022-09-02T08:25:59.459Z,29.9
2022-09-02T08:31:29.997Z,30.1
2022-09-02T08:37:00.417Z,30.2
2022-09-02T08:42:29.965Z,30.3
2022-09-02T08:48:00.407Z,30.3
2022-09-02T08:53:30.857Z,30.4
2022-09-02T08:59:00.359Z,30.5
2022-09-02T09:04:30.835Z,30.5
2022-09-02T09:10:01.302Z,30.6
2022-09-02T09:15:30.816Z,30.6
2022-09-02T09:21:01.300Z,30.6
2022-09-02T09:26:30.839Z,30.6
2022-09-02T09:32:01.437Z,30.7
2022-09-02T09:37:35.736Z,30.7
2022-09-02T09:48:31.734Z,30.8
2022-09-02T09:54:01.207Z,30.8
2022-09-02T09:59:31.732Z,30.9
2022-09-02T10:05:02.178Z,30.9
2022-09-02T10:10:31.635Z,31
2022-09-02T10:16:02.133Z,31
2022-09-02T10:21:32.506Z,31.1
2022-09-02T10:27:01.942Z,31.1
2022-09-02T10:32:32.376Z,31.2
2022-09-02T10:38:02.798Z,31.2
2022-09-02T10:43:32.196Z,31.2
2022-09-02T10:49:02.638Z,31.2
2022-09-02T10:54:32.117Z,31.2
2022-09-02T11:00:02.577Z,31.3
2022-09-02T11:05:33.006Z,31.3
2022-09-02T11:11:02.424Z,31.3
2022-09-02T11:16:33.149Z,31.3
2022-09-02T11:22:03.401Z,31.4
2022-09-02T11:27:42.191Z,31.4
2022-09-02T11:33:03.287Z,31.4
2022-09-02T11:38:33.740Z,31.4
2022-09-02T11:44:03.175Z,31.4
2022-09-02T11:49:33.601Z,31.4
2022-09-02T11:55:03.058Z,31.5
2022-09-02T12:00:33.450Z,31.5
2022-09-02T12:06:04.110Z,31.5
2022-09-02T12:11:33.283Z,31.5
2022-09-02T12:17:03.879Z,31.5
2022-09-02T12:22:34.233Z,31.6
2022-09-02T12:28:03.679Z,31.6
2022-09-02T12:33:34.076Z,31.6
2022-09-02T12:39:06.839Z,31.6
2022-09-02T12:44:33.871Z,31.6
2022-09-02T12:50:04.388Z,31.6
2022-09-02T12:55:33.698Z,31.6
2022-09-02T13:01:04.139Z,31.6
2022-09-02T13:06:33.542Z,31.6
2022-09-02T13:12:03.954Z,31.6
2022-09-02T13:17:36.761Z,31.6
2022-09-02T13:23:04.918Z,31.6
2022-09-02T13:28:35.372Z,31.6
2022-09-02T13:34:05.878Z,31.6
2022-09-02T13:39:35.237Z,31.6
2022-09-02T13:45:05.669Z,31.5
2022-09-02T13:50:36.105Z,31.3
2022-09-02T13:56:05.511Z,31.4
2022-09-02T14:01:36.215Z,31.4
2022-09-02T14:07:05.360Z,31.4
2022-09-02T14:12:35.712Z,31.4
2022-09-02T14:18:06.111Z,31.3
2022-09-02T14:23:35.567Z,31.3
2022-09-02T14:29:05.947Z,30.9
2022-09-02T14:34:35.385Z,31.1
2022-09-02T14:40:05.766Z,31.2
2022-09-02T14:45:36.172Z,31.2
2022-09-02T14:51:05.598Z,31.2
2022-09-02T14:56:35.970Z,31.2
2022-09-02T15:02:06.380Z,31.2
2022-09-02T15:07:35.819Z,31.2
2022-09-02T15:13:06.258Z,31.1
2022-09-02T15:18:35.687Z,31.1
2022-09-02T15:26:18.405Z,31.1
2022-09-02T15:31:47.825Z,31.1
2022-09-02T15:37:18.281Z,31
2022-09-02T15:42:48.806Z,31
2022-09-02T15:48:18.307Z,31
2022-09-02T15:53:48.764Z,30.9
2022-09-02T15:59:19.189Z,30.9
2022-09-02T16:04:48.652Z,30.9
2022-09-02T16:10:19.081Z,30.9
2022-09-02T16:15:49.569Z,30.9
2022-09-02T16:21:19.015Z,30.9
2022-09-02T16:26:49.459Z,30.8
2022-09-02T16:32:27.511Z,30.8
2022-09-02T16:37:49.395Z,30.8
2022-09-02T16:43:19.870Z,30.7
2022-09-02T16:48:50.520Z,30.7
2022-09-02T16:54:21.371Z,30.6
2022-09-02T16:59:50.327Z,30.6
2022-09-02T17:05:19.794Z,30.6
2022-09-02T17:10:50.219Z,30.6
2022-09-02T17:16:20.835Z,30.5
2022-09-02T17:21:50.262Z,30.5
2022-09-02T17:27:20.735Z,30.5
2022-09-02T17:32:55.769Z,30.5
2022-09-02T17:38:25.371Z,30.5
2022-09-02T17:43:51.132Z,30.5
2022-09-02T17:49:21.870Z,30.5
2022-09-02T17:54:51.073Z,30.5
2022-09-02T18:00:21.573Z,30.5
2022-09-02T18:05:52.039Z,30.4
2022-09-02T18:11:22.525Z,30.4
2022-09-02T18:16:52.071Z,30.4
2022-09-02T18:22:21.413Z,30.3
2022-09-02T18:27:52.425Z,30.2
2022-09-02T18:33:22.310Z,30.2
2022-09-02T18:38:51.728Z,30.3
2022-09-02T18:44:22.164Z,30.3
2022-09-02T18:49:52.706Z,30.3
2022-09-02T18:55:22.133Z,30.4
2022-09-02T19:00:52.727Z,30.4
2022-09-02T19:06:21.979Z,30.4
2022-09-02T19:11:52.411Z,30.4
2022-09-02T19:17:22.839Z,30.4
2022-09-02T19:22:52.274Z,30.4
2022-09-02T19:28:22.777Z,30.4
2022-09-02T19:33:53.155Z,30.4
2022-09-02T19:39:22.628Z,30.4
2022-09-02T19:44:53.029Z,30.4
2022-09-02T19:50:23.484Z,30.4
2022-09-02T19:55:52.963Z,30.4
2022-09-02T20:01:23.581Z,30.4
2022-09-02T20:06:53.923Z,30.3
2022-09-02T20:12:23.430Z,30.3
2022-09-02T20:17:53.885Z,30.3
2022-09-02T20:23:23.531Z,30.3
2022-09-02T20:28:54.041Z,30.3
2022-09-02T20:34:23.580Z,30.4
2022-09-02T20:39:54.183Z,30.3
2022-09-02T20:45:24.590Z,30.3
2022-09-02T20:50:54.094Z,30.3
2022-09-02T20:56:24.583Z,30.3
2022-09-02T21:01:54.175Z,30.3
2022-09-02T21:07:24.586Z,30.3
2022-09-02T21:12:55.108Z,30.3
2022-09-02T21:18:24.854Z,30.2
2022-09-02T21:23:55.131Z,30.2
2022-09-02T21:29:25.640Z,30.2
2022-09-02T21:34:56.166Z,30.2
2022-09-02T21:40:25.800Z,30.2
2022-09-02T21:45:56.291Z,30.1
2022-09-02T21:51:26.814Z,30.2
2022-09-02T21:56:56.325Z,30.2
2022-09-02T22:02:26.937Z,30.1
2022-09-02T22:07:57.404Z,30.1
2022-09-02T22:13:26.945Z,30.1
2022-09-02T22:18:57.473Z,30.1
2022-09-02T22:24:28.094Z,30.1
2022-09-02T22:29:57.647Z,30.1
2022-09-02T22:35:28.175Z,30.1
2022-09-02T22:40:58.726Z,30.1
2022-09-02T22:46:28.346Z,30.1
2022-09-02T22:51:58.813Z,30.1
2022-09-02T22:57:29.292Z,30
2022-09-02T23:02:58.873Z,30
2022-09-02T23:08:29.316Z,30
2022-09-02T23:13:59.836Z,30
2022-09-02T23:19:30.343Z,30
2022-09-02T23:24:59.951Z,30
2022-09-02T23:30:30.472Z,30
2022-09-02T23:35:59.994Z,29.9
2022-09-02T23:41:30.458Z,29.9
2022-09-02T23:47:00.963Z,29.9
2022-09-02T23:52:30.494Z,29.9
2022-09-02T23:58:00.991Z,29.9
